Terminal Aerodrome Forecast
Issued by NWS Buffalo, NY

Home | Current Version | Previous Version | Text Only | Print | Product List | Glossary On
Versions: 1 2 3 4 5 6 7 8 9 10 11 12 13 14 15 16 17 18 19 20 21 22 23 24 25
000
FTUS41 KBUF 301700
TAFBUF
TAF
KBUF 301727Z 3018/0118 00000KT P6SM SCT040 BKN150 BKN250
     FM302000 01005KT P6SM VCSH SCT035 BKN120
     FM302300 05007KT P6SM SCT035 BKN120
     FM010500 06004KT 2SM BR BKN012 BKN060
     FM011300 06006KT P6SM BKN012
     FM011400 06006KT P6SM BKN090
     FM011500 07005KT P6SM BKN250=

USA.gov is the U.S. government's official web portal to all federal, state and local government web resources and services.